Time;durP1;ratioP1;P1;durP2;ratioP2;P2;SDS_P1;SDS_P2;PMS_P1;PMS_P2;Temp;Humidity;BMP_temperature;BMP_pressure;BME280_temperature;BME280_humidity;BME280_pressure;Samples;Min_cycle;Max_cycle;Signal;HPM_P1;HPM_P2
2024/02/14 00:00:09;;;;;;;7.23;5.03;;;4.90;99.90;;;;;;5098500;28;20192;-40
2024/02/14 00:02:36;;;;;;;7.10;5.13;;;4.80;99.90;;;;;;5097303;28;20498;-42
2024/02/14 00:05:03;;;;;;;8.60;5.10;;;4.70;99.90;;;;;;5098216;28;20415;-40
2024/02/14 00:07:28;;;;;;;10.43;5.03;;;4.70;99.90;;;;;;5081075;28;20451;-43
2024/02/14 00:09:54;;;;;;;7.40;4.70;;;4.70;99.90;;;;;;5099599;28;20439;-41
2024/02/14 00:12:20;;;;;;;6.67;4.77;;;4.60;1.00;;;;;;5082023;28;20803;-44
2024/02/14 00:14:45;;;;;;;5.00;4.47;;;4.70;1.00;;;;;;5081886;28;20508;-43
2024/02/14 00:17:12;;;;;;;6.60;4.70;;;4.70;1.00;;;;;;5064558;28;20183;-43
2024/02/14 00:19:38;;;;;;;8.03;5.30;;;4.70;1.00;;;;;;5099513;28;20458;-43
2024/02/14 00:22:03;;;;;;;5.37;4.50;;;4.70;1.00;;;;;;5063769;28;20423;-42
2024/02/14 00:24:29;;;;;;;6.20;4.70;;;4.70;1.00;;;;;;5099116;28;20206;-44
2024/02/14 00:26:56;;;;;;;6.10;5.00;;;4.70;1.00;;;;;;5098118;28;20478;-44
2024/02/14 00:29:23;;;;;;;7.30;4.73;;;4.80;1.00;;;;;;5079964;28;20569;-42
2024/02/14 00:31:49;;;;;;;8.47;5.27;;;4.80;1.00;;;;;;5079351;28;20535;-43
2024/02/14 00:34:14;;;;;;;6.93;5.00;;;4.80;1.00;;;;;;5063759;28;20435;-42
2024/02/14 00:36:40;;;;;;;11.60;6.43;;;4.90;1.00;;;;;;5098192;28;20184;-43
2024/02/14 00:39:08;;;;;;;5.77;4.73;;;4.90;1.00;;;;;;5079050;28;20443;-41
2024/02/14 00:41:35;;;;;;;7.10;5.00;;;4.90;1.00;;;;;;5098192;28;20570;-42
2024/02/14 00:44:01;;;;;;;5.40;4.90;;;4.90;1.00;;;;;;5096883;28;20418;-44
2024/02/14 00:46:27;;;;;;;9.27;5.70;;;5.00;1.00;;;;;;5096291;28;20495;-41
2024/02/14 00:48:54;;;;;;;6.17;4.63;;;5.00;1.00;;;;;;5096064;28;20430;-43
2024/02/14 00:51:20;;;;;;;6.00;5.40;;;5.00;1.00;;;;;;5094678;28;20466;-43
2024/02/14 00:53:46;;;;;;;5.10;4.50;;;5.10;1.00;;;;;;5095521;28;20399;-42
2024/02/14 00:56:12;;;;;;;6.50;4.87;;;5.10;1.00;;;;;;5096072;28;20832;-44
2024/02/14 00:58:37;;;;;;;6.77;5.60;;;5.10;1.00;;;;;;5077978;28;20188;-41
2024/02/14 01:01:03;;;;;;;5.43;4.90;;;5.10;1.00;;;;;;5096289;28;20491;-42
2024/02/14 01:03:29;;;;;;;5.30;4.80;;;5.20;1.00;;;;;;5097198;28;20220;-46
2024/02/14 01:05:55;;;;;;;6.47;4.83;;;4.70;1.00;;;;;;5097276;28;20477;-41
2024/02/14 01:08:20;;;;;;;5.87;4.90;;;5.20;1.00;;;;;;5096453;28;20184;-42
2024/02/14 01:10:46;;;;;;;6.37;4.60;;;5.30;1.00;;;;;;5096423;28;20183;-42
2024/02/14 01:13:13;;;;;;;5.60;4.43;;;5.30;1.00;;;;;;5096351;28;20240;-44
2024/02/14 01:15:38;;;;;;;7.83;4.83;;;5.40;1.00;;;;;;5095505;28;20418;-45
2024/02/14 01:18:04;;;;;;;5.03;4.00;;;5.40;1.00;;;;;;5095781;28;20491;-42
2024/02/14 01:20:29;;;;;;;13.17;5.57;;;5.40;1.00;;;;;;5095615;28;20173;-44
2024/02/14 01:22:55;;;;;;;8.37;4.67;;;5.40;1.00;;;;;;5079906;28;20180;-42
2024/02/14 01:25:21;;;;;;;6.63;5.87;;;5.40;1.00;;;;;;5096519;28;20312;-46
2024/02/14 01:27:47;;;;;;;7.87;5.63;;;5.40;1.00;;;;;;5096214;28;20227;-42
2024/02/14 01:30:14;;;;;;;6.13;5.33;;;5.40;1.00;;;;;;5096173;28;20184;-44
2024/02/14 01:32:40;;;;;;;9.83;6.00;;;5.40;1.00;;;;;;5096287;28;21067;-46
2024/02/14 01:35:06;;;;;;;6.47;5.00;;;5.50;5.80;;;;;;5096654;28;20513;-42
2024/02/14 01:37:32;;;;;;;9.80;5.60;;;5.50;44.80;;;;;;5096538;28;20188;-42
2024/02/14 01:39:58;;;;;;;6.67;5.57;;;5.50;57.50;;;;;;5095660;28;20438;-42
2024/02/14 01:42:23;;;;;;;8.40;5.43;;;5.50;54.00;;;;;;5094796;28;20453;-43
2024/02/14 01:44:49;;;;;;;7.40;5.47;;;5.60;55.30;;;;;;5078566;28;20176;-44
2024/02/14 01:47:14;;;;;;;5.70;5.20;;;5.50;46.60;;;;;;5096191;28;20180;-44
2024/02/14 01:49:44;;;;;;;8.87;6.37;;;5.50;10.10;;;;;;5078518;28;20203;-44
2024/02/14 01:52:10;;;;;;;6.73;5.57;;;5.50;24.90;;;;;;5094123;28;20214;-42
2024/02/14 01:54:36;;;;;;;5.87;4.80;;;5.50;33.50;;;;;;5096013;28;20438;-41
2024/02/14 01:57:02;;;;;;;5.47;4.70;;;5.50;21.70;;;;;;5096423;28;20445;-44
2024/02/14 01:59:28;;;;;;;7.20;5.23;;;5.50;46.70;;;;;;5077427;28;20177;-45
2024/02/14 02:01:53;;;;;;;6.77;4.93;;;5.50;42.00;;;;;;5078776;28;20856;-44
2024/02/14 02:04:20;;;;;;;5.67;5.07;;;5.50;91.40;;;;;;5096939;28;20469;-42
2024/02/14 02:06:46;;;;;;;7.07;4.90;;;5.50;64.40;;;;;;5095509;28;20188;-41
2024/02/14 02:09:11;;;;;;;5.70;4.63;;;5.50;27.00;;;;;;5095926;28;20824;-42
2024/02/14 02:11:48;;;;;;;7.00;6.30;;;5.50;35.70;;;;;;5095240;28;20273;-44
2024/02/14 02:14:14;;;;;;;6.90;5.03;;;5.50;45.40;;;;;;5094584;28;20262;-42
2024/02/14 02:16:40;;;;;;;9.53;5.30;;;5.50;44.30;;;;;;5061263;28;20430;-42
2024/02/14 02:19:08;;;;;;;8.10;5.43;;;5.50;46.60;;;;;;5095313;28;20180;-43
2024/02/14 02:21:34;;;;;;;5.67;4.83;;;5.50;67.90;;;;;;5095601;28;20212;-43
2024/02/14 02:24:01;;;;;;;7.87;5.50;;;5.50;64.10;;;;;;5095422;28;20433;-41
2024/02/14 02:26:27;;;;;;;5.63;5.07;;;5.50;86.80;;;;;;5096105;28;20505;-42
2024/02/14 02:28:52;;;;;;;6.40;4.83;;;5.50;70.50;;;;;;5096248;28;20502;-45
2024/02/14 02:31:19;;;;;;;9.67;5.83;;;5.40;84.50;;;;;;5094530;28;20899;-42
2024/02/14 02:33:44;;;;;;;7.73;5.30;;;5.40;58.40;;;;;;5096117;28;20275;-43
2024/02/14 02:36:10;;;;;;;6.87;6.13;;;5.40;56.70;;;;;;5096894;28;20465;-41
2024/02/14 02:38:38;;;;;;;7.40;5.10;;;5.40;68.60;;;;;;5096268;28;20308;-42
2024/02/14 02:41:07;;;;;;;6.30;5.13;;;5.40;63.40;;;;;;5096409;28;20183;-43
2024/02/14 02:43:34;;;;;;;6.87;5.00;;;5.40;44.80;;;;;;5078982;28;20801;-41
2024/02/14 02:45:59;;;;;;;6.80;4.90;;;5.40;30.00;;;;;;5100410;28;20422;-45
2024/02/14 02:48:25;;;;;;;8.43;5.23;;;5.30;38.20;;;;;;5100154;28;20701;-41
2024/02/14 02:50:51;;;;;;;6.63;4.83;;;5.40;34.20;;;;;;5064140;28;20284;-42
2024/02/14 02:53:17;;;;;;;5.37;4.87;;;5.30;62.10;;;;;;5100151;28;20199;-42
2024/02/14 02:55:43;;;;;;;6.30;5.33;;;5.30;91.00;;;;;;5100469;28;20422;-42
2024/02/14 02:58:09;;;;;;;9.50;5.67;;;5.30;84.20;;;;;;5100590;28;20279;-41
2024/02/14 03:00:35;;;;;;;6.00;5.20;;;5.30;67.20;;;;;;5081855;28;20183;-42
2024/02/14 03:03:02;;;;;;;5.57;4.73;;;5.40;79.90;;;;;;5100193;28;20517;-41
2024/02/14 03:05:28;;;;;;;4.53;3.90;;;5.40;49.20;;;;;;5099277;28;20696;-43
2024/02/14 03:07:57;;;;;;;9.80;4.30;;;5.40;1.00;;;;;;5099879;28;20468;-44
2024/02/14 03:10:23;;;;;;;4.03;3.63;;;5.40;1.00;;;;;;5100212;28;20440;-42
2024/02/14 03:12:48;;;;;;;9.43;4.60;;;5.50;1.00;;;;;;5099557;28;20470;-42
2024/02/14 03:15:14;;;;;;;5.40;3.80;;;5.50;1.00;;;;;;5099874;28;20423;-42
2024/02/14 03:17:40;;;;;;;6.73;4.43;;;5.40;1.00;;;;;;5099912;28;20222;-43
2024/02/14 03:20:13;;;;;;;5.63;4.20;;;5.50;1.00;;;;;;5099797;28;20410;-42
2024/02/14 03:26:01;;;;;;;7.37;4.63;;;5.50;1.00;;;;;;5098057;28;20514;-41
2024/02/14 03:28:27;;;;;;;6.77;4.13;;;5.60;1.00;;;;;;5097574;28;20482;-42
2024/02/14 03:30:53;;;;;;;4.40;4.00;;;5.60;1.00;;;;;;5097622;28;20180;-41
2024/02/14 03:33:18;;;;;;;5.67;3.83;;;5.60;1.00;;;;;;5097525;28;20557;-44
2024/02/14 03:35:45;;;;;;;7.03;4.03;;;5.70;1.00;;;;;;5096947;28;20256;-42
2024/02/14 03:38:10;;;;;;;6.50;3.83;;;5.70;1.00;;;;;;5097624;28;20184;-45
2024/02/14 03:40:38;;;;;;;6.50;4.40;;;5.60;1.00;;;;;;5096935;28;20847;-42
2024/02/14 03:43:04;;;;;;;8.00;4.30;;;5.60;1.00;;;;;;5098192;28;20180;-42
2024/02/14 03:45:29;;;;;;;5.07;3.93;;;5.60;1.00;;;;;;5098042;28;20486;-43
2024/02/14 03:47:56;;;;;;;6.30;3.70;;;5.60;1.00;;;;;;5096060;28;20529;-44
2024/02/14 03:50:22;;;;;;;7.43;4.47;;;5.50;1.00;;;;;;5079566;28;20184;-42
2024/02/14 03:52:48;;;;;;;5.07;4.07;;;5.50;1.00;;;;;;5097580;28;20748;-50
2024/02/14 03:55:16;;;;;;;4.33;3.93;;;5.40;1.00;;;;;;5097727;28;20513;-41
2024/02/14 03:57:45;;;;;;;9.17;3.77;;;5.50;1.00;;;;;;5098430;28;20407;-42
2024/02/14 04:00:11;;;;;;;6.80;3.80;;;5.40;1.00;;;;;;5098272;28;20854;-44
2024/02/14 04:02:36;;;;;;;4.30;3.37;;;5.50;1.00;;;;;;5097748;28;20843;-44
2024/02/14 04:05:03;;;;;;;6.00;3.83;;;5.50;1.00;;;;;;5098424;28;20437;-42
2024/02/14 04:07:29;;;;;;;6.93;3.60;;;5.50;1.00;;;;;;5098429;28;20192;-41
2024/02/14 04:09:55;;;;;;;5.43;3.20;;;5.40;1.00;;;;;;5099448;28;20434;-43
2024/02/14 04:12:21;;;;;;;4.30;3.20;;;5.50;1.00;;;;;;5100385;28;20542;-42
2024/02/14 04:14:46;;;;;;;5.17;3.13;;;5.40;1.00;;;;;;5099992;28;20841;-42
2024/02/14 04:17:12;;;;;;;5.13;4.10;;;5.40;1.00;;;;;;5096960;28;20555;-42
2024/02/14 04:19:38;;;;;;;5.50;3.63;;;5.50;1.00;;;;;;5096916;28;20168;-44
2024/02/14 04:22:03;;;;;;;8.60;4.03;;;5.50;1.00;;;;;;5096213;28;20187;-43
2024/02/14 04:24:29;;;;;;;4.57;3.53;;;5.50;1.00;;;;;;5097049;28;20165;-42
2024/02/14 04:26:56;;;;;;;5.07;3.50;;;5.50;99.90;;;;;;5097422;28;20584;-42
2024/02/14 04:29:23;;;;;;;8.43;3.50;;;5.50;99.90;;;;;;5097619;28;20202;-42
2024/02/14 04:31:48;;;;;;;3.67;3.00;;;5.50;99.90;;;;;;5097745;28;20481;-44
2024/02/14 04:34:14;;;;;;;3.73;2.90;;;5.40;99.90;;;;;;5098115;28;20427;-42
2024/02/14 04:36:40;;;;;;;5.47;3.63;;;5.40;99.90;;;;;;5098468;28;20815;-43
2024/02/14 04:39:07;;;;;;;5.73;3.10;;;5.40;99.90;;;;;;5097753;28;20175;-43
2024/02/14 04:41:37;;;;;;;6.10;3.83;;;5.40;99.90;;;;;;5098512;28;20677;-42
2024/02/14 04:44:03;;;;;;;5.17;3.20;;;5.40;99.90;;;;;;5078740;28;20733;-42
2024/02/14 04:46:29;;;;;;;4.93;3.00;;;5.30;1.00;;;;;;5095530;28;20776;-43
2024/02/14 04:48:55;;;;;;;4.03;3.10;;;5.30;1.00;;;;;;5094261;28;20513;-41
2024/02/14 04:51:20;;;;;;;4.70;3.20;;;5.30;99.90;;;;;;5093386;28;20183;-40
2024/02/14 04:53:46;;;;;;;3.93;3.47;;;5.30;99.90;;;;;;5091953;28;20282;-42
2024/02/14 04:56:11;;;;;;;5.03;3.20;;;5.30;99.90;;;;;;5092614;28;20168;-42
2024/02/14 04:58:38;;;;;;;7.93;3.30;;;5.30;99.90;;;;;;5094572;28;20606;-42
2024/02/14 05:01:04;;;;;;;7.97;3.10;;;5.30;99.90;;;;;;5095388;28;20183;-43
2024/02/14 05:03:29;;;;;;;4.43;2.80;;;5.30;99.90;;;;;;5095311;28;20407;-42
2024/02/14 05:05:55;;;;;;;3.00;2.70;;;5.30;99.90;;;;;;5094537;28;20211;-42
2024/02/14 05:08:20;;;;;;;6.87;3.60;;;5.30;99.90;;;;;;5093701;28;20212;-43
2024/02/14 05:10:46;;;;;;;3.83;3.17;;;5.30;1.00;;;;;;5093064;28;20180;-44
2024/02/14 05:13:13;;;;;;;6.67;3.60;;;5.30;1.00;;;;;;5094668;28;20208;-41
2024/02/14 05:15:38;;;;;;;3.23;2.80;;;5.30;1.00;;;;;;5095253;28;20164;-47
2024/02/14 05:18:05;;;;;;;4.23;2.50;;;5.40;1.00;;;;;;5093070;28;20770;-42
2024/02/14 05:20:31;;;;;;;3.00;2.40;;;5.40;1.00;;;;;;5093286;28;20560;-43
2024/02/14 05:22:56;;;;;;;5.23;3.27;;;5.50;1.00;;;;;;5093295;28;20566;-44
2024/02/14 05:25:22;;;;;;;6.83;2.83;;;5.50;1.00;;;;;;5092166;28;20573;-42
2024/02/14 05:27:48;;;;;;;3.60;2.67;;;5.60;1.00;;;;;;5093043;28;20308;-43
2024/02/14 05:30:14;;;;;;;3.83;2.90;;;5.60;1.00;;;;;;5092904;28;20577;-43
2024/02/14 05:32:40;;;;;;;6.03;2.77;;;5.60;1.00;;;;;;5093784;28;20571;-42
2024/02/14 05:35:06;;;;;;;5.30;2.47;;;5.70;99.90;;;;;;5093846;28;20432;-42
2024/02/14 05:37:31;;;;;;;2.60;2.27;;;5.80;99.90;;;;;;5093436;28;20180;-42
2024/02/14 05:39:57;;;;;;;7.10;2.90;;;5.80;99.90;;;;;;5094334;28;20647;-47
2024/02/14 05:42:23;;;;;;;4.40;3.00;;;5.80;99.90;;;;;;5093325;28;20410;-44
2024/02/14 05:44:48;;;;;;;2.43;2.03;;;5.90;99.90;;;;;;5093014;28;20255;-43
2024/02/14 05:47:14;;;;;;;3.60;2.33;;;5.90;99.90;;;;;;5093896;28;20570;-45
2024/02/14 05:49:40;;;;;;;6.00;2.63;;;6.00;99.90;;;;;;5094793;28;20279;-46
2024/02/14 05:52:07;;;;;;;5.20;2.80;;;6.10;99.90;;;;;;5094514;28;20215;-43
2024/02/14 05:54:33;;;;;;;6.27;2.70;;;6.10;90.60;;;;;;5095020;28;20403;-44
2024/02/14 05:56:59;;;;;;;4.63;2.43;;;6.20;17.20;;;;;;5094293;28;20406;-43
2024/02/14 05:59:24;;;;;;;2.60;1.90;;;6.10;1.00;;;;;;5095696;28;20521;-42
2024/02/14 06:01:50;;;;;;;3.70;2.20;;;6.10;1.00;;;;;;5095476;28;20570;-43
2024/02/14 06:04:15;;;;;;;7.53;3.37;;;6.10;1.00;;;;;;5094919;28;20219;-41
2024/02/14 06:06:46;;;;;;;4.00;2.57;;;6.10;1.00;;;;;;5094678;28;20546;-43
2024/02/14 06:09:11;;;;;;;4.63;2.33;;;6.10;99.90;;;;;;5094641;28;20235;-46
2024/02/14 06:11:40;;;;;;;3.43;3.13;;;6.10;99.90;;;;;;5094941;28;20454;-42
2024/02/14 06:14:09;;;;;;;5.60;2.60;;;6.10;99.90;;;;;;5094711;28;20263;-45
2024/02/14 06:16:34;;;;;;;2.90;2.10;;;6.10;99.90;;;;;;5093126;28;20716;-44
2024/02/14 06:19:01;;;;;;;4.10;2.40;;;6.10;99.90;;;;;;5092983;28;20414;-43
2024/02/14 06:21:26;;;;;;;5.23;3.63;;;6.10;99.90;;;;;;5096907;28;20418;-46
2024/02/14 06:23:52;;;;;;;3.87;2.30;;;6.10;99.90;;;;;;5097467;28;20429;-42
2024/02/14 06:26:18;;;;;;;5.80;2.50;;;6.00;99.90;;;;;;5098430;28;20188;-42
2024/02/14 06:28:44;;;;;;;5.57;3.50;;;6.10;99.90;;;;;;5098305;28;20992;-41
2024/02/14 06:31:10;;;;;;;4.93;2.87;;;6.10;99.90;;;;;;5096640;28;20245;-42
2024/02/14 06:33:36;;;;;;;4.43;2.13;;;6.10;99.90;;;;;;5079419;28;20455;-43
2024/02/14 06:36:02;;;;;;;4.47;2.40;;;6.10;99.90;;;;;;5062197;28;20176;-44
2024/02/14 06:38:27;;;;;;;4.87;3.30;;;6.10;99.90;;;;;;5096035;28;20430;-43
2024/02/14 06:40:53;;;;;;;7.33;2.70;;;6.10;99.90;;;;;;5095582;28;20433;-43
2024/02/14 06:43:19;;;;;;;4.73;2.63;;;6.20;99.90;;;;;;5097049;28;20260;-44
2024/02/14 06:45:45;;;;;;;4.03;2.50;;;6.20;99.90;;;;;;5097017;28;20688;-43
2024/02/14 06:48:11;;;;;;;5.40;2.60;;;6.20;99.90;;;;;;5096237;28;20448;-42
2024/02/14 06:50:36;;;;;;;3.03;2.60;;;6.20;99.90;;;;;;5095978;28;20223;-42
2024/02/14 06:53:03;;;;;;;3.53;2.63;;;6.20;99.90;;;;;;5098178;28;20212;-42
2024/02/14 06:55:31;;;;;;;3.90;2.53;;;6.20;99.90;;;;;;5098932;28;20565;-42
2024/02/14 06:57:57;;;;;;;3.37;2.50;;;6.10;99.90;;;;;;5098361;28;20422;-44
2024/02/14 07:00:23;;;;;;;4.97;2.53;;;6.10;99.90;;;;;;5096596;28;20418;-42
2024/02/14 07:02:49;;;;;;;5.07;2.30;;;6.10;1.00;;;;;;5095532;28;20441;-40
2024/02/14 07:05:14;;;;;;;3.57;2.50;;;6.10;1.00;;;;;;5096713;28;20176;-42
2024/02/14 07:07:43;;;;;;;6.13;2.70;;;6.20;1.00;;;;;;5098348;28;20188;-42
2024/02/14 07:10:09;;;;;;;5.03;2.47;;;6.20;1.00;;;;;;5098719;28;20176;-44
2024/02/14 07:12:37;;;;;;;5.60;2.37;;;6.20;1.00;;;;;;5096910;28;20733;-42
2024/02/14 07:15:04;;;;;;;3.60;2.87;;;6.30;1.00;;;;;;5096248;28;20449;-42
2024/02/14 07:17:30;;;;;;;4.43;2.30;;;6.40;99.90;;;;;;5098285;28;20528;-43
2024/02/14 07:19:56;;;;;;;2.90;2.53;;;6.40;99.90;;;;;;5097759;28;20734;-43
2024/02/14 07:22:21;;;;;;;8.83;2.57;;;6.40;99.90;;;;;;5097623;28;20453;-40
2024/02/14 07:24:47;;;;;;;3.97;2.30;;;6.50;99.90;;;;;;5095847;28;20263;-43
2024/02/14 07:27:14;;;;;;;4.03;2.40;;;6.60;42.20;;;;;;5097885;28;20228;-42
2024/02/14 07:29:40;;;;;;;5.40;2.60;;;6.70;1.00;;;;;;5097820;28;20246;-44
2024/02/14 07:32:09;;;;;;;2.63;1.80;;;6.80;1.00;;;;;;5097590;28;20474;-44
2024/02/14 07:34:34;;;;;;;5.43;3.00;;;6.90;1.00;;;;;;5098567;28;20176;-41
2024/02/14 07:37:00;;;;;;;2.83;2.13;;;7.00;99.90;;;;;;5096290;28;20430;-43
2024/02/14 07:39:25;;;;;;;3.17;2.33;;;7.00;99.90;;;;;;5079668;28;20207;-41
2024/02/14 07:41:51;;;;;;;3.83;2.30;;;7.10;99.90;;;;;;5095581;28;20486;-42
2024/02/14 07:44:19;;;;;;;3.37;2.17;;;7.20;99.90;;;;;;5093898;28;20216;-42
2024/02/14 07:46:44;;;;;;;4.40;2.40;;;7.30;99.90;;;;;;5094054;28;20430;-42
2024/02/14 07:49:10;;;;;;;4.00;2.30;;;7.40;1.00;;;;;;5093661;28;20307;-43
2024/02/14 07:51:39;;;;;;;2.57;2.27;;;7.50;99.90;;;;;;5093161;28;20241;-45
2024/02/14 07:54:05;;;;;;;5.53;3.40;;;7.60;1.00;;;;;;5094854;28;20176;-44
2024/02/14 07:56:31;;;;;;;3.87;2.30;;;7.90;1.00;;;;;;5095784;28;20482;-43
2024/02/14 07:58:57;;;;;;;3.80;2.30;;;8.20;99.90;;;;;;5079095;28;20733;-47
2024/02/14 08:01:22;;;;;;;4.70;2.17;;;8.40;1.00;;;;;;5095570;28;20650;-45
2024/02/14 08:03:48;;;;;;;5.57;2.40;;;8.60;99.90;;;;;;5097081;28;20206;-45
2024/02/14 08:06:14;;;;;;;6.73;1.90;;;8.70;1.00;;;;;;5097067;28;20172;-43
2024/02/14 08:08:40;;;;;;;4.70;2.00;;;8.80;99.90;;;;;;5095928;28;20717;-44
2024/02/14 08:11:05;;;;;;;5.77;3.07;;;8.80;99.90;;;;;;5095275;28;20509;-43
2024/02/14 08:13:32;;;;;;;5.33;4.80;;;8.90;99.90;;;;;;5096154;28;20235;-44
2024/02/14 08:15:58;;;;;;;6.27;5.43;;;8.90;99.90;;;;;;5078858;28;21000;-44
2024/02/14 08:18:24;;;;;;;6.50;4.67;;;8.90;99.90;;;;;;5093245;28;21009;-42
2024/02/14 08:20:49;;;;;;;6.50;4.67;;;9.00;99.90;;;;;;5075072;28;20502;-47
2024/02/14 08:23:15;;;;;;;7.20;4.27;;;9.10;99.90;;;;;;5075339;28;20539;-42
2024/02/14 08:25:41;;;;;;;5.73;3.07;;;9.20;99.90;;;;;;5074852;28;20489;-46
2024/02/14 08:28:07;;;;;;;3.80;2.90;;;9.40;99.90;;;;;;5094002;28;20473;-42
2024/02/14 08:30:33;;;;;;;4.30;2.60;;;9.60;1.00;;;;;;5094968;28;20279;-41
2024/02/14 08:32:59;;;;;;;4.63;2.47;;;9.80;1.00;;;;;;5079116;28;20568;-41
2024/02/14 08:35:24;;;;;;;4.50;2.13;;;10.00;1.00;;;;;;5080531;28;21040;-42
2024/02/14 08:37:50;;;;;;;5.03;2.60;;;10.20;53.60;;;;;;5096896;28;20173;-41
2024/02/14 08:40:16;;;;;;;4.23;2.50;;;10.30;1.00;;;;;;5096922;28;20326;-42
2024/02/14 08:42:42;;;;;;;4.03;2.20;;;10.40;1.00;;;;;;5077482;28;20198;-42
2024/02/14 08:45:09;;;;;;;2.90;1.83;;;10.50;1.00;;;;;;5095650;28;20414;-41
2024/02/14 08:47:34;;;;;;;2.53;1.60;;;10.50;1.00;;;;;;5097361;28;20237;-42
2024/02/14 08:50:00;;;;;;;4.90;2.00;;;10.40;1.00;;;;;;5097501;28;20503;-39
2024/02/14 08:52:26;;;;;;;4.03;1.60;;;10.40;1.00;;;;;;5095846;28;20212;-42
2024/02/14 08:54:52;;;;;;;5.07;2.07;;;10.30;1.00;;;;;;5094443;28;20160;-41
2024/02/14 08:57:19;;;;;;;5.30;1.90;;;10.00;1.00;;;;;;5075955;28;20420;-41
2024/02/14 08:59:47;;;;;;;5.57;1.80;;;9.80;1.00;;;;;;5068136;28;20585;-43
2024/02/14 09:02:18;;;;;;;3.70;1.80;;;9.80;32.40;;;;;;5133413;27;20595;-43
2024/02/14 09:04:44;;;;;;;5.10;1.77;;;9.80;51.20;;;;;;5132308;27;20808;-42
2024/02/14 09:07:10;;;;;;;3.70;1.90;;;9.70;94.70;;;;;;5112320;28;20444;-56
2024/02/14 09:09:37;;;;;;;2.40;1.70;;;9.70;99.90;;;;;;5133667;27;20179;-43
2024/02/14 09:12:04;;;;;;;6.40;2.60;;;9.60;99.90;;;;;;5132038;27;20405;-42
2024/02/14 09:14:34;;;;;;;2.37;1.77;;;9.70;99.90;;;;;;5114419;28;20465;-44
2024/02/14 09:17:01;;;;;;;3.33;2.00;;;9.90;99.90;;;;;;5131596;27;20462;-44
2024/02/14 09:19:27;;;;;;;3.90;2.43;;;9.90;99.90;;;;;;5131597;27;20423;-41
2024/02/14 09:21:53;;;;;;;4.50;2.60;;;10.10;99.90;;;;;;5131960;27;20547;-45
2024/02/14 09:24:18;;;;;;;3.93;1.50;;;10.30;99.90;;;;;;5132144;27;20176;-43
2024/02/14 09:26:44;;;;;;;3.53;1.90;;;10.50;9.00;;;;;;5132163;27;20282;-42
2024/02/14 09:29:12;;;;;;;4.30;1.70;;;10.70;1.00;;;;;;5131497;28;20183;-41
2024/02/14 09:31:38;;;;;;;2.33;1.40;;;10.80;1.00;;;;;;5130031;27;20187;-45
2024/02/14 09:34:03;;;;;;;4.00;1.63;;;10.90;1.00;;;;;;5130112;27;20979;-41
2024/02/14 09:36:29;;;;;;;3.20;1.47;;;11.00;40.50;;;;;;5130269;27;20480;-42
2024/02/14 09:38:55;;;;;;;4.27;2.47;;;11.20;57.80;;;;;;5131571;27;20203;-43
2024/02/14 09:41:33;;;;;;;3.90;1.70;;;11.40;1.00;;;;;;5132274;27;20210;-44
2024/02/14 09:43:59;;;;;;;6.03;1.60;;;11.40;1.00;;;;;;5132119;28;20448;-42
2024/02/14 09:46:27;;;;;;;4.20;1.57;;;11.40;1.00;;;;;;5133473;28;20839;-42
2024/02/14 09:48:54;;;;;;;2.87;1.53;;;11.60;99.90;;;;;;5133215;27;20457;-42
2024/02/14 09:51:19;;;;;;;2.43;1.50;;;11.90;38.90;;;;;;5114128;27;20516;-42
2024/02/14 09:53:45;;;;;;;4.13;1.40;;;12.10;99.90;;;;;;5096861;27;20926;-45
2024/02/14 09:56:12;;;;;;;3.00;2.03;;;12.30;1.00;;;;;;5113143;28;20175;-42
2024/02/14 09:58:43;;;;;;;4.50;1.90;;;12.40;1.00;;;;;;5112739;28;20471;-41
2024/02/14 10:01:08;;;;;;;3.53;1.77;;;12.50;1.00;;;;;;5131875;28;21092;-43
2024/02/14 10:03:35;;;;;;;2.33;1.40;;;13.00;1.00;;;;;;5113792;28;20429;-42
2024/02/14 10:06:01;;;;;;;3.67;1.73;;;13.10;1.00;;;;;;5131538;27;20416;-41
2024/02/14 10:08:27;;;;;;;3.80;1.50;;;13.30;99.90;;;;;;5132566;27;20736;-45
2024/02/14 10:10:53;;;;;;;5.80;2.10;;;12.90;99.90;;;;;;5131197;27;20456;-43
2024/02/14 10:13:19;;;;;;;4.13;2.47;;;12.90;99.90;;;;;;5118523;28;20429;-45
2024/02/14 10:15:45;;;;;;;4.83;1.97;;;13.30;99.90;;;;;;5115390;28;20574;-42
2024/02/14 10:18:10;;;;;;;2.27;1.50;;;13.40;99.90;;;;;;5114789;28;20192;-42
2024/02/14 10:20:43;;;;;;;5.50;1.47;;;13.70;99.90;;;;;;5116234;28;20551;-42
2024/02/14 10:23:10;;;;;;;5.00;1.53;;;14.20;99.90;;;;;;5117288;28;20175;-43
2024/02/14 10:25:37;;;;;;;3.90;2.00;;;14.40;96.00;;;;;;5117815;28;20441;-43
2024/02/14 10:28:08;;;;;;;3.07;1.40;;;15.10;44.80;;;;;;5099764;28;20504;-45
2024/02/14 10:30:41;;;;;;;3.83;1.83;;;15.70;1.00;;;;;;5099406;28;20842;-42
2024/02/14 10:33:07;;;;;;;4.30;1.40;;;16.00;1.00;;;;;;5117672;28;20406;-41
2024/02/14 10:35:36;;;;;;;3.47;2.00;;;16.50;1.00;;;;;;5118579;28;20413;-41
2024/02/14 10:38:02;;;;;;;2.80;1.23;;;15.90;1.00;;;;;;5118000;28;20425;-42
2024/02/14 10:40:28;;;;;;;1.73;1.30;;;15.50;1.00;;;;;;5118891;28;20529;-42
2024/02/14 10:42:57;;;;;;;1.70;1.20;;;15.70;1.00;;;;;;5118596;28;20528;-45
2024/02/14 10:45:22;;;;;;;2.30;1.37;;;15.80;1.00;;;;;;5099444;28;20434;-47
2024/02/14 10:47:50;;;;;;;4.30;1.80;;;15.50;1.00;;;;;;5117187;28;20409;-42
2024/02/14 10:50:15;;;;;;;1.87;1.40;;;15.60;1.00;;;;;;5096962;28;20564;-45
2024/02/14 10:52:41;;;;;;;5.40;2.03;;;15.90;1.00;;;;;;5113872;28;20442;-43
2024/02/14 10:55:07;;;;;;;2.50;1.57;;;16.40;1.00;;;;;;5097605;28;20476;-42
2024/02/14 10:57:33;;;;;;;1.70;1.20;;;17.10;1.00;;;;;;5096859;28;20540;-43
2024/02/14 11:00:03;;;;;;;2.20;1.37;;;17.60;1.00;;;;;;5097989;28;20470;-41
2024/02/14 11:02:30;;;;;;;1.77;1.30;;;;;;;;;;5114020;28;20469;-48
2024/02/14 11:04:56;;;;;;;1.70;1.13;;;;;;;;;;5113263;28;20452;-41
2024/02/14 11:07:25;;;;;;;1.83;1.40;;;18.30;1.00;;;;;;5113730;28;20420;-42
2024/02/14 11:10:07;;;;;;;2.90;1.50;;;17.90;1.00;;;;;;5093021;28;20539;-42
2024/02/14 11:12:35;;;;;;;1.53;0.90;;;16.90;1.00;;;;;;5113025;28;20687;-40
2024/02/14 11:15:01;;;;;;;2.23;1.30;;;15.90;1.00;;;;;;5112613;28;20819;-46
2024/02/14 11:17:27;;;;;;;1.83;1.23;;;15.20;1.00;;;;;;5113984;28;20456;-42
2024/02/14 11:19:53;;;;;;;1.40;1.00;;;14.60;1.00;;;;;;5097518;28;20465;-41
2024/02/14 11:22:19;;;;;;;2.40;1.47;;;14.20;46.10;;;;;;5094573;28;20832;-44
2024/02/14 11:24:49;;;;;;;3.30;1.47;;;13.90;99.90;;;;;;5113921;28;20440;-42
2024/02/14 11:27:20;;;;;;;2.73;1.63;;;14.00;99.90;;;;;;5115037;28;20723;-41
2024/02/14 11:29:52;;;;;;;2.30;1.60;;;14.10;99.90;;;;;;5113662;28;20470;-42
2024/02/14 11:32:18;;;;;;;2.40;1.23;;;14.00;99.90;;;;;;5096858;28;20823;-41
2024/02/14 11:34:44;;;;;;;2.00;1.07;;;13.90;99.90;;;;;;5111544;28;20529;-42
2024/02/14 11:37:09;;;;;;;2.40;1.10;;;13.80;1.00;;;;;;5077196;28;20184;-46
2024/02/14 11:39:36;;;;;;;3.47;1.23;;;13.50;1.00;;;;;;5111221;28;20524;-43
2024/02/14 11:42:02;;;;;;;2.70;1.30;;;13.40;1.00;;;;;;5092500;28;20566;-42
2024/02/14 11:44:27;;;;;;;2.60;1.13;;;13.20;99.90;;;;;;5112306;28;20448;-42
2024/02/14 11:46:54;;;;;;;2.43;1.37;;;13.00;99.90;;;;;;5110876;28;20570;-43
2024/02/14 11:49:20;;;;;;;1.60;0.90;;;12.60;92.20;;;;;;5111472;28;20180;-40
2024/02/14 11:51:47;;;;;;;1.67;1.00;;;12.50;1.00;;;;;;5092210;28;20429;-42
2024/02/14 11:54:13;;;;;;;1.60;1.10;;;12.70;1.00;;;;;;5095797;28;20445;-43
2024/02/14 11:56:39;;;;;;;2.03;1.10;;;13.30;99.90;;;;;;5114704;28;20418;-44
2024/02/14 11:59:06;;;;;;;1.63;1.00;;;14.00;99.90;;;;;;5078787;28;20191;-42
2024/02/14 12:01:34;;;;;;;1.70;0.80;;;15.70;99.90;;;;;;5079252;28;20300;-42
2024/02/14 12:04:00;;;;;;;4.33;1.10;;;;;;;;;;5079185;28;20673;-43
2024/02/14 12:06:27;;;;;;;3.30;1.17;;;;;;;;;;5114906;28;20711;-42
2024/02/14 12:08:53;;;;;;;1.13;0.73;;;;;;;;;;5115763;28;20406;-45
2024/02/14 12:11:19;;;;;;;1.63;1.07;;;;;;;;;;5112674;28;20410;-43
2024/02/14 12:13:50;;;;;;;2.10;1.10;;;20.30;1.00;;;;;;5112371;28;20436;-47
2024/02/14 12:16:21;;;;;;;3.03;1.07;;;20.60;1.00;;;;;;5111481;28;20432;-42
2024/02/14 12:18:48;;;;;;;1.50;1.00;;;20.70;1.00;;;;;;5113606;28;20433;-46
2024/02/14 12:21:13;;;;;;;1.60;1.00;;;20.00;1.00;;;;;;5112167;28;20571;-46
2024/02/14 12:23:39;;;;;;;1.50;0.70;;;18.90;1.00;;;;;;5111072;28;20811;-42
2024/02/14 12:26:05;;;;;;;1.20;0.87;;;18.00;1.00;;;;;;5092635;28;20240;-43
2024/02/14 12:28:31;;;;;;;1.90;1.23;;;17.40;1.00;;;;;;5110391;28;20183;-43
2024/02/14 12:30:58;;;;;;;1.33;0.80;;;16.80;1.00;;;;;;5091402;28;20438;-41
2024/02/14 12:33:25;;;;;;;2.50;1.03;;;16.30;1.00;;;;;;5110855;28;20777;-43
2024/02/14 12:35:53;;;;;;;1.57;0.87;;;15.90;1.00;;;;;;5110917;28;20482;-43
2024/02/14 12:38:19;;;;;;;2.60;1.03;;;15.70;1.00;;;;;;5110082;28;20419;-43
2024/02/14 12:40:46;;;;;;;1.77;1.00;;;15.60;1.00;;;;;;5110531;28;20868;-43
2024/02/14 12:43:13;;;;;;;3.00;1.10;;;15.40;1.00;;;;;;5093516;28;20671;-46
2024/02/14 12:45:39;;;;;;;1.80;1.00;;;15.20;1.00;;;;;;5093193;28;20433;-44
2024/02/14 12:48:06;;;;;;;2.10;0.70;;;14.70;31.50;;;;;;5110609;28;20668;-44
2024/02/14 12:50:32;;;;;;;1.30;1.00;;;14.40;99.90;;;;;;5096384;28;20417;-43
2024/02/14 12:52:58;;;;;;;1.50;0.90;;;14.30;99.90;;;;;;5113632;28;20564;-42
2024/02/14 12:55:25;;;;;;;1.90;1.17;;;14.00;1.00;;;;;;5113109;28;20422;-42
2024/02/14 12:57:51;;;;;;;1.17;0.73;;;13.90;1.00;;;;;;5112630;28;20677;-42